• Join FlightAware (Why Join?)
  • Login
  • US Flag 
01:57AM EDT


 

Airport Tracker/Info


-or-


 

Live Flight TrackerFlight Track Log ✈ RPA4886 ✈ 01-May-2013 ✈ KIAD - KALB

Flight Track Log - Related Links

Times and Time Zones

All times are in EDT time to prevent confusion due to time zone crossing. See the RPA4886 flight status page for this flight to view local times or setup timezone preferences in your user account.

Time Position Orientation Groundspeed Altitude Reporting Facility
EDT Latitude Longitude Course Direction KTS MPH feet Rate Location/Type
05:47PM 38.9500 -77.5333 North 200 230 2,000  Level Potomac TRACON
05:48PM 38.9667 -77.6000 288° West 214 246 4,300 1,980 Climbing Potomac TRACON
05:49PM 39.2111 -77.4500 North  Level FlightAware Approximate
05:49PM 39.0158 -77.7047 301° West 239 275 7,000  Level Washington Center
05:50PM 39.3036 -77.4500 North  Level FlightAware Approximate
05:50PM 39.0825 -77.7094 357° North 234 269 7,400  Level Washington Center
05:51PM 39.3962 -77.4500 North  Level FlightAware Approximate
05:51PM 39.1558 -77.6767 19° North 240 276 9,300  Level Washington Center
05:52PM 39.4888 -77.4500 North  Level FlightAware Approximate
05:52PM 39.2272 -77.6439 20° North 245 282 11,300  Level Washington Center
05:53PM 39.2944 -77.6111 21° North 251 289 13,300 1,800 Climbing Washington Center
05:54PM 39.3617 -77.5806 19° North 251 289 15,000 1,320 Climbing Washington Center
05:55PM 39.4289 -77.5503 19° North 251 289 16,000 300 Climbing Washington Center
05:57PM 39.5958 -77.4719 20° North 300 345 16,000 60 Level New York Center
05:58PM 39.6886 -77.4511 10° North 336 387 16,300 480 Climbing New York Center
05:59PM 39.7756 -77.4269 12° North 328 377 17,000 300 Climbing New York Center
06:00PM 39.8594 -77.3808 23° Northeast 315 362 17,000  Level New York Center
06:01PM 39.9411 -77.3369 22° Northeast 321 369 17,000  Level New York Center
06:02PM 40.0292 -77.2911 22° Northeast 321 369 17,000  Level New York Center
06:03PM 40.0981 -77.2542 22° Northeast 321 369 17,000  Level New York Center
06:04PM 40.1944 -77.2061 21° North 321 369 17,000  Level New York Center
06:05PM 40.2889 -77.1575 21° North 321 369 17,000  Level New York Center
06:06PM 40.3661 -77.1131 24° Northeast 326 375 17,000  Level New York Center
06:07PM 40.4647 -77.0647 20° North 332 382 17,000  Level New York Center
06:08PM 40.5442 -77.0228 22° Northeast 339 390 17,000  Level New York Center
06:09PM 40.6386 -76.9711 23° Northeast 339 390 17,000  Level New York Center
06:10PM 40.7178 -76.9289 22° Northeast 334 384 17,000  Level New York Center
06:11PM 40.8142 -76.8775 22° Northeast 334 384 17,000  Level New York Center
06:12PM 40.8936 -76.8350 22° Northeast 341 392 17,000  Level New York Center
06:13PM 40.9814 -76.7878 22° Northeast 341 392 17,000  Level New York Center
06:14PM 41.0672 -76.7406 23° Northeast 336 387 17,000  Level New York Center
06:15PM 41.1550 -76.6931 22° Northeast 336 387 17,000  Level New York Center
06:16PM 41.2514 -76.6381 23° Northeast 341 392 17,000  Level New York Center
06:17PM 41.3392 -76.5903 22° Northeast 341 392 17,000  Level New York Center
06:18PM 41.4183 -76.5475 22° Northeast 341 392 17,000  Level New York Center
06:19PM 41.5042 -76.4994 23° Northeast 341 392 17,000  Level New York Center
06:20PM 41.6003 -76.4494 21° North 341 392 17,000  Level New York Center
06:21PM 41.6858 -76.3983 24° Northeast 335 386 17,000  Level New York Center
06:23PM 41.8253 -76.3242 22° Northeast 364 419 17,000  Level Boston Center
06:24PM 41.9144 -76.2767 22° Northeast 346 398 17,000  Level Boston Center
06:25PM 42.0017 -76.2261 23° Northeast 341 392 17,000  Level Boston Center
06:26PM 42.0867 -76.1781 23° Northeast 336 387 17,000  Level Boston Center
06:27PM 42.1656 -76.1183 29° Northeast 336 387 17,000  Level Boston Center
06:28PM 42.2069 -76.0000 65° Northeast 317 365 17,000  Level Boston Center
06:29PM 42.2458 -75.8844 66° East 327 376 17,000  Level Boston Center
06:30PM 42.2847 -75.7686 66° East 327 376 17,000  Level Boston Center
06:31PM 42.3108 -75.6606 72° East 332 382 17,000  Level Boston Center
06:32PM 42.3394 -75.5383 72° East 337 388 17,000  Level Boston Center
06:33PM 42.3697 -75.4161 71° East 337 388 17,000  Level Boston Center
06:34PM 42.3978 -75.2939 73° East 342 394 17,000  Level Boston Center
06:35PM 42.4300 -75.1686 71° East 337 388 17,000  Level Boston Center
06:36PM 42.4581 -75.0489 72° East 337 388 17,000 -300 Level Boston Center
06:37PM 42.4878 -74.9261 72° East 337 388 16,500 -1,080 Descending Boston Center
06:38PM 42.5178 -74.7978 72° East 337 388 14,900 -1,500 Descending Boston Center
06:39PM 42.5403 -74.7086 71° East 313 360 13,800 -1,380 Descending Boston Center
06:40PM 42.5722 -74.5658 73° East 326 375 12,100 -1,440 Descending Boston Center
06:41PM 42.6014 -74.4569 70° East 318 366 10,700 -1,560 Descending Boston Center
06:42PM 42.6383 -74.3622 62° Northeast 285 328 9,100 -1,500 Descending Boston Center
06:43PM 42.6692 -74.2669 66° East 271 312 7,700 -1,500 Descending Boston Center
06:43PM 42.6778 -74.2475 59° Northeast 272 313 7,200 -1,620 Descending Boston Center
06:44PM 42.6997 -74.1775 67° East 261 300 6,100 -1,500 Descending Boston Center
06:44PM 42.7064 -74.1581 65° Northeast 259 298 5,700 -1,500 Descending Boston Center
06:45PM 42.7367 -74.0767 63° Northeast 238 274 4,200 -1,380 Descending Boston Center
06:46PM 42.7628 -74.0011 65° Northeast 233 268 3,100 -1,200 Descending Boston Center